createdAt,value
2022-10-13T00:00:18.493Z,13.90
2022-10-13T00:02:47.008Z,13.90
2022-10-13T00:05:17.952Z,14.10
2022-10-13T00:07:46.446Z,13.90
2022-10-13T00:10:14.931Z,13.90
2022-10-13T00:12:43.624Z,14.00
2022-10-13T00:15:15.042Z,14.00
2022-10-13T00:17:44.749Z,14.00
2022-10-13T00:20:15.899Z,14.00
2022-10-13T00:22:44.392Z,14.10
2022-10-13T00:25:14.477Z,14.10
2022-10-13T00:27:45.524Z,13.90
2022-10-13T00:30:19.713Z,14.00
2022-10-13T00:32:51.832Z,14.00
2022-10-13T00:35:20.953Z,14.00
2022-10-13T00:37:49.405Z,14.00
2022-10-13T00:40:19.341Z,14.10
2022-10-13T00:42:50.393Z,14.10
2022-10-13T00:45:32.555Z,14.10
2022-10-13T00:48:05.491Z,13.90
2022-10-13T00:50:38.950Z,14.00
2022-10-13T00:53:10.785Z,14.10
2022-10-13T00:55:45.141Z,14.10
2022-10-13T00:58:26.836Z,14.20
2022-10-13T01:01:01.881Z,14.10
2022-10-13T01:03:32.366Z,14.00
2022-10-13T01:06:08.437Z,14.20
2022-10-13T01:08:39.880Z,14.20
2022-10-13T01:11:33.068Z,14.20
2022-10-13T01:14:08.757Z,14.20
2022-10-13T01:16:45.970Z,14.20
2022-10-13T01:19:59.577Z,14.20
2022-10-13T01:22:48.877Z,14.20
2022-10-13T01:25:35.046Z,14.30
2022-10-13T01:28:20.125Z,14.10
2022-10-13T01:30:53.461Z,14.50
2022-10-13T01:33:31.612Z,14.30
2022-10-13T01:36:11.917Z,14.30
2022-10-13T01:38:48.562Z,14.30
2022-10-13T01:41:22.697Z,14.30
2022-10-13T01:43:55.869Z,14.30
2022-10-13T01:46:28.420Z,14.30
2022-10-13T01:49:00.677Z,14.40
2022-10-13T01:51:31.732Z,14.30
2022-10-13T01:54:00.646Z,14.30
2022-10-13T01:56:28.886Z,14.20
2022-10-13T01:58:59.994Z,14.30
2022-10-13T02:01:41.756Z,14.30
2022-10-13T02:04:22.159Z,14.30
2022-10-13T02:06:55.935Z,14.30
2022-10-13T02:09:32.737Z,14.40
2022-10-13T02:12:06.773Z,14.40
2022-10-13T02:14:39.607Z,14.20
2022-10-13T02:17:10.236Z,14.30
2022-10-13T02:19:40.404Z,14.20
2022-10-13T02:22:10.992Z,14.30
2022-10-13T02:24:39.469Z,14.30
2022-10-13T02:27:08.747Z,14.30
2022-10-13T02:29:50.979Z,14.30
2022-10-13T02:32:21.498Z,14.40
2022-10-13T02:34:52.141Z,14.40
2022-10-13T02:37:20.851Z,14.30
2022-10-13T02:39:49.450Z,14.40
2022-10-13T02:42:21.360Z,14.40
2022-10-13T02:44:50.080Z,14.40
2022-10-13T02:47:18.869Z,14.40
2022-10-13T02:49:51.481Z,14.40
2022-10-13T02:52:22.912Z,14.40
2022-10-13T02:54:59.501Z,14.40
2022-10-13T02:57:30.249Z,14.20
2022-10-13T02:59:59.216Z,14.30
2022-10-13T03:02:33.050Z,14.30
2022-10-13T03:05:13.436Z,14.30
2022-10-13T03:07:43.704Z,14.30
2022-10-13T03:10:14.918Z,14.30
2022-10-13T03:12:52.748Z,14.40
2022-10-13T03:15:22.907Z,14.30
2022-10-13T03:17:51.817Z,14.50
2022-10-13T03:20:24.176Z,14.40
2022-10-13T03:22:54.559Z,14.50
2022-10-13T03:25:23.361Z,14.50
2022-10-13T03:27:53.594Z,14.50
2022-10-13T03:30:22.338Z,14.50
2022-10-13T03:32:51.001Z,14.50
2022-10-13T03:35:21.010Z,14.50
2022-10-13T03:37:49.398Z,14.50
2022-10-13T03:40:18.115Z,14.70
2022-10-13T03:42:46.721Z,14.60
2022-10-13T03:45:15.503Z,14.60
2022-10-13T03:47:43.849Z,14.60
2022-10-13T03:50:12.863Z,14.60
2022-10-13T03:52:42.846Z,14.60
2022-10-13T03:55:11.528Z,14.60
2022-10-13T03:57:41.795Z,14.50
2022-10-13T04:00:16.491Z,14.50
2022-10-13T04:02:44.923Z,14.50
2022-10-13T04:05:15.410Z,14.60
2022-10-13T04:07:48.280Z,14.60
2022-10-13T04:10:16.883Z,14.70
2022-10-13T04:12:45.548Z,14.60
2022-10-13T04:15:13.969Z,14.50
2022-10-13T04:17:42.626Z,14.60
2022-10-13T04:20:12.173Z,14.60
2022-10-13T04:22:40.689Z,14.60
2022-10-13T04:25:14.556Z,14.50
2022-10-13T04:27:42.799Z,14.60
2022-10-13T04:30:18.652Z,14.40
2022-10-13T04:32:47.135Z,14.60
2022-10-13T04:35:16.006Z,14.60
2022-10-13T04:37:45.309Z,14.60
2022-10-13T04:40:15.651Z,14.60
2022-10-13T04:42:44.084Z,14.60
2022-10-13T04:45:15.759Z,14.60
2022-10-13T04:47:44.403Z,14.60
2022-10-13T04:50:12.714Z,14.60
2022-10-13T04:52:41.175Z,14.70
2022-10-13T04:55:10.403Z,14.60
2022-10-13T04:57:40.537Z,14.60
2022-10-13T05:00:18.972Z,14.60
2022-10-13T05:03:19.221Z,14.60
2022-10-13T05:06:34.321Z,14.60
2022-10-13T05:09:09.159Z,14.60
2022-10-13T05:11:37.486Z,14.70
2022-10-13T05:14:07.433Z,14.60
2022-10-13T05:16:35.864Z,14.60
2022-10-13T05:19:04.335Z,14.60
2022-10-13T05:21:33.164Z,14.60
2022-10-13T05:24:02.585Z,14.60
2022-10-13T05:26:33.734Z,14.60
2022-10-13T05:29:04.517Z,14.60
2022-10-13T05:31:36.658Z,14.50
2022-10-13T05:34:08.416Z,14.60
2022-10-13T05:36:36.765Z,14.60
2022-10-13T05:39:20.534Z,14.60
2022-10-13T05:44:04.274Z,14.60
2022-10-13T05:45:40.855Z,14.70
2022-10-13T05:48:12.898Z,14.70
2022-10-13T05:50:46.218Z,14.90
2022-10-13T05:53:36.644Z,14.80
2022-10-13T05:56:24.923Z,14.80
2022-10-13T06:01:52.383Z,14.90
2022-10-13T06:04:41.783Z,14.90
2022-10-13T06:10:27.767Z,14.90
2022-10-13T06:13:13.282Z,14.90
2022-10-13T06:16:01.495Z,14.80
2022-10-13T06:18:37.854Z,14.90
2022-10-13T06:21:16.653Z,14.80
2022-10-13T06:23:48.995Z,14.80
2022-10-13T06:26:21.531Z,14.80
2022-10-13T06:29:10.816Z,14.80
2022-10-13T06:32:22.046Z,14.80
2022-10-13T06:35:16.148Z,14.70
2022-10-13T06:38:14.828Z,14.80
2022-10-13T06:44:21.147Z,14.80
2022-10-13T06:47:25.279Z,14.80
2022-10-13T06:50:03.351Z,14.80
2022-10-13T06:52:51.762Z,14.70
2022-10-13T06:55:52.619Z,14.80
2022-10-13T06:58:32.774Z,14.80
2022-10-13T07:01:05.414Z,14.80
2022-10-13T07:04:10.221Z,14.80
2022-10-13T07:06:43.298Z,14.80
2022-10-13T07:13:16.088Z,14.90
2022-10-13T07:16:04.998Z,15.00
2022-10-13T07:19:02.495Z,15.00
2022-10-13T07:22:00.488Z,15.00
2022-10-13T07:24:42.539Z,14.90
2022-10-13T07:27:36.468Z,15.00
2022-10-13T07:30:23.398Z,14.90
2022-10-13T07:33:36.969Z,14.90
2022-10-13T07:36:28.916Z,15.00
2022-10-13T07:39:11.264Z,15.00
2022-10-13T07:42:02.666Z,15.00
2022-10-13T07:51:44.480Z,15.20
2022-10-13T08:05:39.600Z,15.20
2022-10-13T08:12:38.683Z,15.30
2022-10-13T08:19:13.686Z,15.30
2022-10-13T08:22:44.282Z,15.30
2022-10-13T08:32:40.363Z,15.40
2022-10-13T08:35:43.542Z,15.40
2022-10-13T08:38:38.586Z,15.50
2022-10-13T08:42:05.499Z,15.50
2022-10-13T08:49:46.467Z,15.50
2022-10-13T08:52:41.668Z,15.60
2022-10-13T09:06:14.315Z,15.60
2022-10-13T09:12:54.169Z,15.60
2022-10-13T09:15:57.880Z,15.50
2022-10-13T09:19:11.935Z,15.70
2022-10-13T09:26:00.961Z,15.80
2022-10-13T09:29:29.271Z,15.80
2022-10-13T09:40:04.702Z,16.10
2022-10-13T09:43:12.250Z,16.20
2022-10-13T09:46:34.121Z,16.30
2022-10-13T09:50:11.952Z,16.30
2022-10-13T09:53:11.841Z,16.40
2022-10-13T09:56:38.255Z,16.40
2022-10-13T11:15:35.234Z,16.70
2022-10-13T11:26:37.290Z,16.70
2022-10-13T11:30:36.421Z,16.60
2022-10-13T14:01:04.379Z,15.60
2022-10-13T14:03:32.413Z,15.30
2022-10-13T14:06:00.371Z,15.20
2022-10-13T14:08:31.409Z,15.00
2022-10-13T14:10:59.798Z,15.00
2022-10-13T14:13:28.153Z,14.80
2022-10-13T14:16:00.032Z,14.70
2022-10-13T14:18:29.966Z,14.70
2022-10-13T14:21:00.448Z,14.50
2022-10-13T14:23:28.535Z,14.40
2022-10-13T14:25:56.636Z,14.30
2022-10-13T14:28:24.752Z,14.20
2022-10-13T14:30:52.722Z,14.20
2022-10-13T14:33:20.714Z,14.10
2022-10-13T14:35:50.067Z,14.20
2022-10-13T14:38:18.517Z,14.40
2022-10-13T14:40:46.837Z,14.20
2022-10-13T14:43:14.792Z,14.20
2022-10-13T14:45:42.914Z,14.20
2022-10-13T14:48:11.854Z,14.30
2022-10-13T14:50:44.211Z,14.20
2022-10-13T14:53:15.516Z,14.30
2022-10-13T14:55:43.700Z,14.40
2022-10-13T14:58:12.855Z,14.40
2022-10-13T15:00:43.676Z,14.50
2022-10-13T15:03:13.736Z,14.60
2022-10-13T15:05:41.916Z,14.70
2022-10-13T15:08:09.996Z,14.80
2022-10-13T15:10:39.600Z,14.90
2022-10-13T15:13:07.699Z,14.90
2022-10-13T15:15:35.776Z,15.00
2022-10-13T15:18:03.977Z,15.10
2022-10-13T15:20:31.972Z,15.50
2022-10-13T15:23:00.587Z,15.50
2022-10-13T15:25:30.848Z,15.70
2022-10-13T15:28:02.812Z,15.70
2022-10-13T15:30:33.607Z,15.70
2022-10-13T15:33:01.882Z,15.70
2022-10-13T15:35:31.237Z,15.60
2022-10-13T15:38:00.144Z,15.50
2022-10-13T15:40:28.147Z,15.60
2022-10-13T15:42:56.126Z,15.50
2022-10-13T15:45:25.650Z,15.40
2022-10-13T15:47:54.350Z,15.40
2022-10-13T15:50:22.364Z,15.50
2022-10-13T15:52:50.528Z,15.60
2022-10-13T15:55:19.148Z,15.60
2022-10-13T15:57:47.526Z,15.70
2022-10-13T16:00:18.450Z,15.60
2022-10-13T16:02:51.072Z,15.70
2022-10-13T16:05:20.389Z,15.70
2022-10-13T16:07:48.352Z,15.50
2022-10-13T16:10:17.369Z,15.60
2022-10-13T16:12:49.372Z,15.60
2022-10-13T16:15:18.923Z,15.50
2022-10-13T16:17:48.561Z,15.50
2022-10-13T16:20:16.585Z,15.40
2022-10-13T16:22:44.893Z,15.40
2022-10-13T16:25:13.047Z,15.40
2022-10-13T16:27:44.366Z,15.40
2022-10-13T16:30:13.673Z,15.40
2022-10-13T16:32:41.850Z,15.40
2022-10-13T16:35:11.687Z,15.40
2022-10-13T16:37:39.639Z,15.40
2022-10-13T16:40:08.825Z,15.50
2022-10-13T16:42:36.864Z,15.40
2022-10-13T16:45:05.483Z,15.40
2022-10-13T16:47:33.641Z,15.40
2022-10-13T16:50:06.288Z,15.30
2022-10-13T16:52:35.703Z,15.30
2022-10-13T16:55:03.955Z,15.30
2022-10-13T16:57:32.625Z,15.20
2022-10-13T17:00:00.778Z,15.10
2022-10-13T17:02:28.912Z,15.00
2022-10-13T17:04:57.001Z,15.00
2022-10-13T17:07:25.207Z,15.00
2022-10-13T17:09:54.743Z,14.90
2022-10-13T17:12:22.722Z,14.90
2022-10-13T17:14:50.728Z,14.80
2022-10-13T17:17:18.962Z,14.80
2022-10-13T17:19:47.330Z,14.70
2022-10-13T17:22:15.430Z,14.70
2022-10-13T17:24:48.115Z,14.60
2022-10-13T17:27:17.911Z,14.60
2022-10-13T17:29:46.450Z,14.50
2022-10-13T17:32:14.852Z,14.50
2022-10-13T17:34:42.927Z,14.40
2022-10-13T17:37:10.976Z,14.40
2022-10-13T17:39:40.176Z,14.30
2022-10-13T17:42:08.486Z,14.30
2022-10-13T17:44:38.109Z,14.40
2022-10-13T17:47:06.189Z,14.20
2022-10-13T17:49:34.223Z,14.20
2022-10-13T17:52:02.453Z,14.10
2022-10-13T17:54:30.572Z,14.10
2022-10-13T17:56:58.886Z,14.00
2022-10-13T17:59:27.026Z,14.20
2022-10-13T18:01:56.409Z,14.00
2022-10-13T18:04:24.510Z,14.10
2022-10-13T18:06:52.684Z,14.00
2022-10-13T18:09:23.523Z,13.90
2022-10-13T18:11:53.831Z,14.00
2022-10-13T18:14:23.576Z,13.80
2022-10-13T18:16:51.921Z,13.60
2022-10-13T18:19:22.524Z,13.70
2022-10-13T18:21:52.825Z,13.60
2022-10-13T18:24:21.360Z,13.60
2022-10-13T18:26:49.332Z,13.50
2022-10-13T18:29:17.832Z,13.50
2022-10-13T18:31:45.931Z,13.50
2022-10-13T18:34:17.300Z,13.50
2022-10-13T18:36:49.216Z,13.40
2022-10-13T18:39:19.637Z,13.60
2022-10-13T18:41:48.216Z,13.40
2022-10-13T18:44:16.899Z,13.40
2022-10-13T18:46:59.742Z,13.30
2022-10-13T18:49:39.494Z,13.30
2022-10-13T18:52:18.080Z,13.30
2022-10-13T18:54:50.960Z,13.30
2022-10-13T18:57:22.383Z,13.20
2022-10-13T18:59:56.265Z,13.20
2022-10-13T19:02:36.002Z,13.20
2022-10-13T19:05:09.635Z,13.10
2022-10-13T19:07:42.745Z,13.10
2022-10-13T19:10:14.810Z,12.90
2022-10-13T19:12:50.224Z,12.90
2022-10-13T19:15:21.016Z,13.00
2022-10-13T19:17:53.046Z,13.00
2022-10-13T19:20:22.044Z,13.00
2022-10-13T19:22:52.885Z,12.90
2022-10-13T19:25:25.889Z,12.80
2022-10-13T19:27:57.764Z,12.90
2022-10-13T19:30:28.889Z,12.70
2022-10-13T19:32:57.928Z,12.90
2022-10-13T19:35:27.093Z,12.80
2022-10-13T19:38:00.751Z,12.80
2022-10-13T19:40:29.364Z,12.70
2022-10-13T19:42:59.504Z,12.70
2022-10-13T19:45:27.596Z,12.70
2022-10-13T19:47:55.559Z,12.60
2022-10-13T19:50:23.602Z,12.60
2022-10-13T19:52:51.945Z,12.50
2022-10-13T19:55:21.889Z,12.50
2022-10-13T19:57:50.630Z,12.50
2022-10-13T20:00:19.217Z,12.30
2022-10-13T20:02:47.539Z,12.40
2022-10-13T20:05:15.701Z,12.40
2022-10-13T20:07:43.704Z,12.30
2022-10-13T20:10:11.668Z,12.30
2022-10-13T20:12:41.391Z,12.40
2022-10-13T20:15:09.481Z,12.20
2022-10-13T20:17:37.538Z,12.10
2022-10-13T20:20:06.343Z,12.10
2022-10-13T20:22:34.540Z,12.10
2022-10-13T20:25:06.177Z,12.00
2022-10-13T20:27:34.350Z,11.90
2022-10-13T20:30:04.051Z,11.90
2022-10-13T20:32:31.994Z,11.80
2022-10-13T20:35:00.395Z,11.90
2022-10-13T20:37:28.687Z,11.80
2022-10-13T20:39:57.558Z,11.80
2022-10-13T20:42:25.580Z,11.90
2022-10-13T20:44:53.548Z,12.00
2022-10-13T20:47:23.260Z,11.80
2022-10-13T20:49:51.512Z,11.90
2022-10-13T20:52:19.420Z,11.80
2022-10-13T20:54:47.545Z,11.90
2022-10-13T20:57:15.526Z,11.90
2022-10-13T20:59:43.544Z,11.80
2022-10-13T21:02:14.323Z,12.00
2022-10-13T21:04:43.730Z,12.00
2022-10-13T21:07:11.713Z,12.10
2022-10-13T21:09:39.780Z,12.10
2022-10-13T21:12:08.198Z,12.10
2022-10-13T21:14:36.163Z,12.10
2022-10-13T21:17:04.158Z,12.00
2022-10-13T21:19:32.184Z,12.10
2022-10-13T21:22:01.691Z,12.20
2022-10-13T21:24:29.781Z,12.20
2022-10-13T21:26:57.887Z,12.20
2022-10-13T21:29:26.197Z,12.20
2022-10-13T21:31:54.583Z,12.20
2022-10-13T21:34:23.733Z,12.20
2022-10-13T21:36:51.704Z,12.20
2022-10-13T21:39:21.242Z,12.30
2022-10-13T21:41:49.389Z,12.30
2022-10-13T21:44:17.296Z,12.20
2022-10-13T21:46:45.376Z,12.20
2022-10-13T21:49:13.325Z,12.30
2022-10-13T21:51:41.724Z,12.30
2022-10-13T21:54:12.281Z,12.10
2022-10-13T21:56:43.047Z,12.20
2022-10-13T21:59:12.505Z,12.20
2022-10-13T22:01:41.238Z,12.20
2022-10-13T22:04:10.684Z,12.30
2022-10-13T22:06:39.062Z,12.30
2022-10-13T22:09:07.932Z,12.30
2022-10-13T22:11:37.948Z,12.30
2022-10-13T22:14:08.303Z,12.40
2022-10-13T22:16:38.934Z,12.40
2022-10-13T22:19:07.867Z,12.40
2022-10-13T22:21:38.585Z,12.40
2022-10-13T22:24:09.529Z,12.40
2022-10-13T22:26:41.142Z,12.40
2022-10-13T22:29:13.032Z,12.40
2022-10-13T22:31:41.174Z,12.50
2022-10-13T22:34:09.396Z,12.50
2022-10-13T22:36:41.033Z,12.40
2022-10-13T22:39:11.809Z,12.50
2022-10-13T22:41:39.795Z,12.50
2022-10-13T22:44:07.774Z,12.40
2022-10-13T22:46:38.764Z,12.50
2022-10-13T22:49:07.492Z,12.50
2022-10-13T22:51:37.002Z,12.40
2022-10-13T22:54:06.061Z,12.40
2022-10-13T22:56:35.453Z,12.40
2022-10-13T22:59:06.434Z,12.40
2022-10-13T23:01:34.779Z,12.60
2022-10-13T23:04:04.860Z,12.40
2022-10-13T23:06:34.727Z,12.40
2022-10-13T23:09:03.312Z,12.50
2022-10-13T23:11:31.316Z,12.40
2022-10-13T23:13:59.427Z,12.40
2022-10-13T23:16:28.445Z,12.40
2022-10-13T23:18:56.943Z,12.30
2022-10-13T23:21:29.181Z,12.30
2022-10-13T23:23:57.953Z,12.30
2022-10-13T23:26:26.551Z,12.30
2022-10-13T23:28:54.915Z,12.30
2022-10-13T23:31:23.172Z,12.40
2022-10-13T23:33:51.905Z,12.50
2022-10-13T23:36:22.197Z,12.40
2022-10-13T23:38:55.317Z,12.40
2022-10-13T23:41:23.705Z,12.50
2022-10-13T23:43:51.927Z,12.50
2022-10-13T23:46:20.213Z,12.50
2022-10-13T23:48:48.403Z,12.50
2022-10-13T23:51:18.740Z,12.50
2022-10-13T23:53:47.166Z,12.50
2022-10-13T23:56:17.188Z,12.70
2022-10-13T23:58:46.006Z,12.60
